Tiempo atmosférico en la estación meteorológica de Manresa, Barcelona (291 m.)



Fecha
DESCASC
Temp. máxima en grados centígrados (hora)
DESCASC
Temp. mínima en grados centígrados (hora)
DESCASC
Temp. media en grados centígrados
DESCASC
Racha de viento máxima en m/sg (hora)
DESCASC
Velocidad máxima media en intervalos de 10 minutos(hora)
DESCASC
Precipitaciones diarias en mm
DESCASC
Precipitaciones de 00:00 a 06:00 en mm
DESCASC
Precipitaciones de 06:00 a 12:00 en mm
DESCASC
Precipitaciones de 12:00 a 18:00 en mm
DESCASC
Precipitaciones de 18:00 a 24:00 en mm
DESCASC
10-11-2019 13.9 (15:20) 4.6 (00:00) 9.2 8.89 (17:20) 4.44 (17:30) 0.2 0.2 0 0 0
09-11-2019 13.8 (15:20) 2.1 (00:00) 8 10.28 (01:20) 5.83 (01:20) 0 0 0 0 0
08-11-2019 12.7 (14:20) 3.8 (00:00) 8.2 13.89 (16:30) 7.22 (19:40) 0 0 0 0 0
07-11-2019 15.7 (14:50) 4 (00:00) 9.8 8.33 (19:00) 3.89 (18:30) 0 0 0 0 0
06-11-2019 16.9 (15:30) 6 (00:00) 11.4 9.17 (14:20) 5.28 (03:20) 0 0 0 0 0
05-11-2019 16 (14:30) 9.4 (00:00) 12.7 15 (14:40) 7.22 (14:50) 0.2 0.2 0 0 0
04-11-2019 21.3 (15:20) 10.8 (00:00) 16 13.89 (12:40) 6.67 (14:20) 0 0 0 0 0
03-11-2019 17.8 (15:20) 12 (00:00) 14.9 16.39 (16:30) 8.61 (11:50) 0.2 0.2 0 0 0
02-11-2019 22.5 (15:10) 12 (00:00) 17.3 11.11 (15:20) 5.83 (14:30) 0 0 0 0 0
01-11-2019 20.2 (16:10) 8.5 (00:00) 14.4 3.33 (18:50) 1.94 (01:10) 0.2 0 0.2 0 0
31-10-2019 21 (16:10) 11.7 (07:30) 16.3 5.28 (16:20) 2.78 (18:40) 0 0 0 0 0
30-10-2019 22.5 (16:30) 8.3 (00:00) 15.4 5.56 (17:30) 3.33 (17:40) 0 0 0 0 0
29-10-2019 22.2 (16:50) 8.7 (00:00) 15.5 2.5 (14:30) 1.11 (10:50) 0 0 0 0 0
28-10-2019 17.1 (16:10) 9.5 (00:00) 13.3 2.5 (13:20) 1.39 (11:00) 0 0 0 0 0
27-10-2019 23.4 (15:10) 8 (00:00) 15.7 5.83 (18:30) 3.33 (18:30) 0 0 0 0 0
26-10-2019 23 (16:30) 6.2 (00:00) 14.6 6.39 (19:20) 2.78 (18:40) 0 0 0 0 0
25-10-2019 21 (17:20) 7.1 (00:00) 14 5.28 (08:00) 3.06 (08:00) 0 0 0 0 0
24-10-2019 16.8 (17:40) 8.3 (00:00) 12.5 9.72 (15:20) 4.72 (15:10) 0.2 0.2 0 0 0
23-10-2019 -- (--) -- (--) -- -- (--) -- (--) -- -- -- 0 0
22-10-2019 20.2 (20:50) 11.7 (00:00) 16 12.5 (23:10) 5.83 (23:20) -- 1.2 8.2 2.4 --
21-10-2019 15.5 (17:00) 9.9 (00:00) 12.7 3.89 (13:00) 2.22 (13:00) 0 0 0 0 0
20-10-2019 20.9 (13:20) 13.4 (00:00) 17.1 10.56 (14:10) 4.72 (14:10) 6.4 0.2 1.8 4.4 0
19-10-2019 25.6 (15:20) 10 (00:00) 17.8 8.61 (19:00) 4.17 (17:10) 0 0 0 0 0
18-10-2019 25.1 (15:40) 8.9 (00:00) 17 7.5 (16:10) 4.17 (16:10) 0 0 0 0 0
17-10-2019 25.9 (15:50) 6.9 (00:00) 16.4 7.78 (16:50) 4.44 (16:50) 0 0 0 0 0
16-10-2019 22.5 (17:20) 6.7 (00:00) 14.6 8.61 (16:50) 4.17 (14:40) 0 0 0 0 0
15-10-2019 19.8 (16:30) 11.6 (00:00) 15.7 11.39 (16:00) 6.11 (13:50) 1.4 1.4 0 0 0

Gráficas

Temp. máximas Temp. mínimas Temp. medias Precipitaciones Rachas de viento máximas Velocidades máximas media en intervalos de 10 minutos

Datos horarios

Fecha y hora oficial Temperatura (ºC) Velocidad del viento (km/h) Dirección del viento Racha (km/h) Dirección de racha Precipitación (mm) Presión (hPa) Tendencia (hPa) Humedad (%)
2019-11-13 23:00:00 5.1 3 Nordeste 6 Norte 0 974 -0.8 89
2019-11-13 22:00:00 6.2 3 Este 8 Este 0 974.5 0.3 86
2019-11-13 21:00:00 7.1 4 Noroeste 11 Sudoeste 0 974.7 0.8 82
2019-11-13 20:00:00 8.6 2 Nordeste 6 Este 0 974.8 1.5 78
2019-11-13 19:00:00 9.4 4 Este 11 Noroeste 0 974.2 1.6 75
2019-11-13 18:00:00 10.9 5 Sudoeste 14 Noroeste 0 973.9 1.4 66
2019-11-13 17:00:00 12.9 8 Oeste 17 Oeste 0 973.3 0.4 58
2019-11-13 16:00:00 13.8 7 Sur 12 Sur 0 972.6 -0.8 57
2019-11-13 15:00:00 13.2 4 Sudeste 10 Sur 0 972.5 -1.1 57
2019-11-13 14:00:00 10.7 4 Nordeste 7 Nordeste 0 972.9 -0.6 66
2019-11-13 13:00:00 8.3 2 Norte 8 Oeste 0 973.4 0.8 74
2019-11-13 12:00:00 6.9 3 Sudoeste 10 Sudeste 0 973.6 1.6 78
2019-11-13 11:00:00 6.1 3 Norte 6 Oeste 0 973.5 2.3 79
2019-11-13 10:00:00 4.5 0 Calma 6 Oeste 0 972.6 1.7 85
2019-11-13 09:00:00 3.8 3 Nordeste 10 Nordeste 0 972 1.1 85
2019-11-13 08:00:00 3.4 4 Nordeste 11 Nordeste 0 971.2 0.3 87
2019-11-13 07:00:00 3.2 5 Nordeste 10 Nordeste 0 970.9 -0.1 87
2019-11-13 06:00:00 3.4 4 Nordeste 13 Nordeste 0 970.9 0.1 87
2019-11-13 05:00:00 3.4 7 Nordeste 14 Nordeste 0 970.9 -0.4 89
2019-11-13 04:00:00 3.9 9 Nordeste 16 Nordeste 0 971 -0.8 88
2019-11-13 03:00:00 4.6 8 Nordeste 13 Nordeste 0 970.8 -1.5 87
2019-11-13 02:00:00 5.6 6 Nordeste 9 Nordeste 0 971.3 -1.1 84
2019-11-13 01:00:00 7.5 4 Nordeste 16 Noroeste 0 971.8 -0.6 76
2019-11-13 00:00:00 8.8 3 Sudoeste 15 Norte 0 972.3 0 71
2019-11-12 23:00:00 9.5 6 Noroeste 30 Noroeste 0 972.4 0.2 68
2019-11-12 22:00:00 9.8 14 Oeste 27 Noroeste 0 972.4 0.3 67
2019-11-12 21:00:00 10.6 12 Noroeste 30 Noroeste 0 972.3 0.8 64
2019-11-12 20:00:00 11.2 5 Nordeste 24 Oeste 0 972.2 1 61
2019-11-12 19:00:00 12.2 13 Oeste 33 Oeste 0 972.1 0.8 58
2019-11-12 18:00:00 13.3 17 Oeste 33 Oeste 0 971.5 -0.3 53
2019-11-12 17:00:00 14.5 17 Oeste 40 Noroeste 0 971.2 -1.5 47
2019-11-12 16:00:00 14.8 20 Oeste 44 Noroeste 0 971.3 -2.8 45
2019-11-12 15:00:00 14.5 18 Oeste 37 Oeste 0 971.8 -3.1 42
2019-11-12 14:00:00 13.8 19 Oeste 39 Oeste 0 972.7 -2.6 38
2019-11-12 13:00:00 12.9 14 Oeste 29 Oeste 0 974.1 -1.3 42
2019-11-12 12:00:00 11.1 12 Oeste 38 Noroeste 0 974.9 -0.9 52
2019-11-12 11:00:00 9.1 13 Noroeste 30 Noroeste 0 975.3 -0.7 61
2019-11-12 10:00:00 6 6 Nordeste 10 Nordeste 0 975.4 -0.5 77
2019-11-12 09:00:00 2.5 2 Oeste 9 Oeste 0 975.8 -0.7 89
2019-11-12 08:00:00 2.1 4 Nordeste 13 Nordeste 0 976 -0.5 90
2019-11-12 07:00:00 1.9 9 Nordeste 15 Nordeste 0 975.9 -0.5 90
2019-11-12 06:00:00 2 4 Nordeste 10 Nordeste 0 976.5 -0.1 90
2019-11-12 05:00:00 1.7 6 Nordeste 11 Nordeste 0 976.5 -0.4 91
2019-11-12 04:00:00 1.9 3 Nordeste 11 Nordeste 0 976.4 -0.6 90
2019-11-12 03:00:00 2.7 6 Nordeste 10 Nordeste 0 976.6 -0.4 89
2019-11-12 02:00:00 3.4 3 Noroeste 12 Este 0 976.9 -0.1 87
2019-11-12 01:00:00 4.1 5 Nordeste 10 Nordeste 0 977 0.1 84
2019-11-12 00:00:00 4.6 3 Nordeste 13 Nordeste 0 977 0.2 82
2019-11-11 23:00:00 5.5 5 Nordeste 12 Nordeste 0 977 0.5 78
2019-11-11 22:00:00 6.5 8 Este 14 Este 0 976.9 0.3 74
2019-11-11 21:00:00 7 6 Nordeste 10 Nordeste 0 976.8 0.4 72
2019-11-11 20:00:00 8.3 6 Nordeste 11 Este 0 976.5 0.3 65
2019-11-11 19:00:00 8.9 7 Nordeste 12 Nordeste 0 976.6 0.7 61
2019-11-11 18:00:00 9.9 4 Nordeste 18 Noroeste 0 976.4 0.6 60
2019-11-11 17:00:00 11.1 7 Noroeste 23 Oeste 0 976.2 0 47
2019-11-11 16:00:00 12.1 13 Oeste 27 Noroeste 0 975.9 -1.2 39
2019-11-11 15:00:00 12.1 10 Oeste 21 Oeste 0 975.8 -2.6 47
2019-11-11 14:00:00 10.8 4 Norte 13 Norte 0 976.2 -3 53
2019-11-11 13:00:00 9.1 8 Nordeste 16 Este 0 977.1 -2.3 60
2019-11-11 12:00:00 6.9 10 Nordeste 16 Este 0 978.4 -0.5 68
2019-11-11 11:00:00 4.8 8 Nordeste 18 Este 0 979.2 0.8 78
2019-11-11 10:00:00 2.9 9 Nordeste 15 Nordeste 0 979.4 0.9 83
2019-11-11 09:00:00 1.3 9 Nordeste 17 Nordeste 0 978.9 0.3 87
2019-11-11 08:00:00 0.7 10 Nordeste 18 Nordeste 0 978.4 0.1 89
2019-11-11 07:00:00 0.6 8 Nordeste 16 Este 0 978.5 0.1 90
2019-11-11 06:00:00 0.4 10 Este 17 Nordeste 0 978.6 0.1 91
2019-11-11 05:00:00 0.5 6 Nordeste 14 Nordeste 0 978.3 -0.3 92
2019-11-11 04:00:00 1.1 8 Nordeste 14 Este 0 978.4 0 90
2019-11-11 03:00:00 1.7 6 Nordeste 11 Nordeste 0 978.5 0.8 90
2019-11-11 02:00:00 2.3 4 Nordeste 10 Norte 0 978.6 1.6 89
2019-11-11 01:00:00 3.7 4 Nordeste 14 Noroeste 0 978.4 1.3 83
2019-11-11 00:00:00 4.6 3 Sudeste 19 Oeste 0 977.7 1 80
2019-11-10 23:00:00 6.2 10 Noroeste 24 Noroeste 0 977 0.7 73
2019-11-10 22:00:00 6.8 10 Oeste 21 Noroeste 0 977.1 1.7 71
2019-11-10 21:00:00 7.1 8 Oeste 19 Noroeste 0 976.7 2.2 71
2019-11-10 20:00:00 8 5 Oeste 25 Oeste 0 976.3 2.8 67
2019-11-10 19:00:00 9.1 12 Oeste 25 Oeste 0 975.4 2.1 63
2019-11-10 18:00:00 10.1 9 Oeste 32 Oeste 0 974.5 1.3 60
2019-11-10 17:00:00 12.4 12 Oeste 28 Noroeste 0 973.5 -0.1 51
2019-11-10 16:00:00 13.9 11 Oeste 28 Oeste 0 973.3 -1.2 42
2019-11-10 15:00:00 13.8 14 Oeste 28 Oeste 0 973.2 -2.1 42
2019-11-10 14:00:00 13.4 11 Oeste 21 Sudoeste 0 973.6 -1.8 43
2019-11-10 13:00:00 12.1 12 Oeste 22 Noroeste 0 974.5 -0.9 51
2019-11-10 12:00:00 11.2 4 Sudoeste 20 Noroeste 0 975.3 0.3 58
2019-11-10 11:00:00 8.8 6 Oeste 14 Oeste 0 975.4 0.9 66
2019-11-10 10:00:00 7.5 8 Oeste 18 Oeste 0 975.4 1.7 74
2019-11-10 09:00:00 6.9 6 Oeste 19 Oeste 0 975 1.3 77
2019-11-10 08:00:00 7.2 7 Oeste 13 Oeste 0 974.5 0.1 77
2019-11-10 07:00:00 7.8 5 Oeste 18 Oeste 0 973.7 -0.7 78
2019-11-10 06:00:00 8.3 8 Oeste 15 Oeste 0 973.7 -1.3 79
2019-11-10 05:00:00 8.3 2 Norte 19 Oeste 0.2 974.4 -0.4 82
2019-11-10 04:00:00 8.5 5 Sudeste 14 Nordeste 0 974.4 -0.5 80
2019-11-10 03:00:00 8.9 8 Norte 16 Nordeste 0 975 -0.3 78
2019-11-10 02:00:00 9.7 5 Nordeste 14 Norte 0 974.8 -0.8 72
2019-11-10 01:00:00 10.2 5 Norte 20 Oeste 0 974.9 -1.2 68
2019-11-10 00:00:00 10.5 5 Noroeste 25 Noroeste 0 975.3 -1.3 66
2019-11-09 23:00:00 11 10 Oeste 27 Oeste 0 975.6 -1.7 63
2019-11-09 22:00:00 11.1 13 Oeste 34 Sudoeste 0 976.1 -1.9 62
2019-11-09 21:00:00 11.1 15 Oeste 31 Oeste 0 976.6 -0.8 61
2019-11-09 20:00:00 11.4 16 Oeste 28 Oeste 0 977.3 -0.8 58
2019-11-09 19:00:00 11.5 10 Oeste 30 Noroeste 0 978 -0.6 60
2019-11-09 18:00:00 11.6 2 Norte 9 Oeste 0 977.4 -1.6 60
2019-11-09 17:00:00 12.2 3 Oeste 25 Oeste 0 978.1 -1.2 57
2019-11-09 16:00:00 13.1 9 Oeste 27 Oeste 0 978.6 -1.6 50
2019-11-09 15:00:00 13.2 9 Oeste 26 Noroeste 0 979 -2 53
2019-11-09 14:00:00 12.3 9 Oeste 32 Noroeste 0 979.3 -1.9 56
2019-11-09 13:00:00 12 14 Oeste 31 Oeste 0 980.2 -1.3 58
2019-11-09 12:00:00 10.8 10 Noroeste 23 Noroeste 0 981 0 60
2019-11-09 11:00:00 8.5 9 Nordeste 17 Nordeste 0 981.2 0.8 68
2019-11-09 10:00:00 5.9 9 Nordeste 19 Este 0 981.5 1.8 73
2019-11-09 09:00:00 2.5 8 Nordeste 14 Norte 0 981 2.1 86
2019-11-09 08:00:00 2.1 7 Nordeste 22 Oeste 0 980.4 2.2 87
2019-11-09 07:00:00 5.6 12 Noroeste 24 Oeste 0 979.7 1.9 78
2019-11-09 06:00:00 5.7 5 Noroeste 24 Noroeste 0 978.9 1.1 75
2019-11-09 05:00:00 5.9 10 Noroeste 32 Oeste 0 978.2 0.6 73
2019-11-09 04:00:00 5.9 7 Noroeste 17 Norte 0 977.8 0.1 74
2019-11-09 03:00:00 5.9 6 Noroeste 31 Noroeste 0 977.8 0.4 75
2019-11-09 02:00:00 5.8 7 Noroeste 37 Noroeste 0 977.6 0.2 74
2019-11-09 01:00:00 5.7 15 Oeste 28 Noroeste 0 977.7 0.8 74
2019-11-09 00:00:00 6.1 17 Noroeste 32 Oeste 0 977.4 1.7 72
2019-11-08 23:00:00 6.1 9 Oeste 20 Noroeste 0 977.4 2.5 72
2019-11-08 22:00:00 6.6 10 Oeste 31 Oeste 0 976.9 2.8 71
2019-11-08 21:00:00 7.1 14 Oeste 34 Noroeste 0 975.7 2.3 69
2019-11-08 20:00:00 7.9 18 Oeste 44 Oeste 0 974.9 1.8 67
2019-11-08 19:00:00 8.4 18 Oeste 42 Noroeste 0 974.1 1.6 66
2019-11-08 18:00:00 9.7 18 Oeste 44 Oeste 0 973.4 1.2 60
2019-11-08 17:00:00 11.1 22 Oeste 50 Oeste 0 973.1 0.6 52
2019-11-08 16:00:00 12.1 19 Oeste 45 Sudoeste 0 972.5 -0.5 48
2019-11-08 15:00:00 12.3 15 Oeste 32 Oeste 0 972.2 -1.3 52
2019-11-08 14:00:00 12.5 15 Oeste 33 Noroeste 0 972.5 -1.2 51
2019-11-08 13:00:00 11 18 Oeste 34 Oeste 0 973 -0.6 54
2019-11-08 12:00:00 10.4 12 Oeste 21 Oeste 0 973.5 0 57
2019-11-08 11:00:00 9 10 Oeste 21 Oeste 0 973.7 0.8 59
2019-11-08 10:00:00 6.6 4 Nordeste 15 Este 0 973.6 1.2 68
2019-11-08 09:00:00 5 9 Nordeste 19 Nordeste 0 973.5 1.6 75
2019-11-08 08:00:00 3.8 7 Este 16 Nordeste 0 972.9 1.1 81
2019-11-08 07:00:00 4.5 9 Nordeste 24 Oeste 0 972.4 0.7 79
2019-11-08 06:00:00 5.3 5 Noroeste 16 Noroeste 0 971.9 -0.1 74
2019-11-08 05:00:00 5.8 6 Noroeste 19 Noroeste 0 971.8 0 73
2019-11-08 04:00:00 6.4 6 Oeste 19 Oeste 0 971.7 -0.4 71
2019-11-08 03:00:00 6.8 5 Oeste 15 Oeste 0 972 -0.6 71
2019-11-08 02:00:00 6.5 3 Sudeste 9 Oeste 0 971.8 -0.7 73
2019-11-08 01:00:00 6.4 3 Sur 8 Oeste 0 972.1 -0.5 75
2019-11-08 00:00:00 6.6 3 Nordeste 10 Este 0 972.6 -0.1 73
2019-11-07 23:00:00 7.1 4 Noroeste 6 Oeste 0 972.5 0 69
2019-11-07 22:00:00 8.4 3 Sudoeste 12 Noroeste 0 972.6 0.1 61
2019-11-07 21:00:00 9.9 5 Oeste 25 Noroeste 0 972.7 0.5 56
2019-11-07 20:00:00 11 13 Noroeste 26 Oeste 0 972.5 0.3 54
2019-11-07 19:00:00 11.5 9 Oeste 30 Oeste 0 972.5 0.2 57
2019-11-07 18:00:00 12.3 11 Oeste 23 Oeste 0 972.2 0 60
2019-11-07 17:00:00 13.2 8 Sudoeste 22 Noroeste 0 972.2 -0.8 62
2019-11-07 16:00:00 13.6 11 Oeste 22 Noroeste 0 972.3 -0.9 60
2019-11-07 15:00:00 15.2 11 Oeste 20 Oeste 0 972.2 -1.6 57
2019-11-07 14:00:00 13.8 4 Sudoeste 7 Sur 0 973 -1 63
2019-11-07 13:00:00 12.9 3 Noroeste 6 Noroeste 0 973.2 -0.8 65
2019-11-07 12:00:00 11.1 3 Norte 9 Norte 0 973.8 0.1 71
2019-11-07 11:00:00 9.4 4 Nordeste 9 Nordeste 0 974 0.4 75
2019-11-07 10:00:00 8 6 Nordeste 9 Nordeste 0 974 0.6 78
2019-11-07 09:00:00 4.8 0 Calma 8 Nordeste 0 973.7 -0.1 89
2019-11-07 08:00:00 4.1 0 Calma 8 Nordeste 0 973.6 -0.3 90
2019-11-07 07:00:00 4.4 3 Norte 10 Este 0 973.4 -1.1 90
2019-11-07 06:00:00 4.8 4 Este 12 Nordeste 0 973.8 -1.3 89
2019-11-07 05:00:00 5.5 5 Este 12 Este 0 973.9 -1.9 87
2019-11-07 04:00:00 4.9 5 Este 13 Nordeste 0 974.5 -1.7 90
2019-11-07 03:00:00 5.4 3 Nordeste 7 Nordeste 0 975.1 -1.1 90
2019-11-07 02:00:00 5.9 2 Nordeste 7 Nordeste 0 975.8 -0.9 88
2019-11-07 01:00:00 6.6 0 Calma 6 Nordeste 0 976.2 -0.6 86
2019-11-07 00:00:00 7.7 3 Este 6 Noroeste 0 976.2 -0.6 81
2019-11-06 23:00:00 8.7 3 Nordeste 10 Oeste 0 976.7 0.2 78
2019-11-06 22:00:00 10.1 4 Este 8 Este 0 976.8 0.3 72
2019-11-06 21:00:00 10.7 3 Nordeste 12 Este 0 976.8 1 70
2019-11-06 20:00:00 12.3 2 Sudoeste 17 Oeste 0 976.5 1 62
2019-11-06 19:00:00 13.4 9 Oeste 18 Oeste 0 976.5 1 58
2019-11-06 18:00:00 14.4 8 Oeste 22 Oeste 0 975.8 0 55
2019-11-06 17:00:00 15.8 12 Oeste 26 Noroeste 0 975.5 -0.6 50
2019-11-06 16:00:00 16.8 12 Oeste 29 Oeste 0 975.5 -1.1 48
2019-11-06 15:00:00 16.2 17 Oeste 33 Oeste 0 975.8 -1.5 47
2019-11-06 14:00:00 15.6 13 Oeste 31 Oeste 0 976.1 -1.1 53
2019-11-06 13:00:00 14.2 16 Oeste 33 Sudoeste 0 976.6 -0.6 57
2019-11-06 12:00:00 13.1 16 Oeste 29 Noroeste 0 977.3 0.4 59
2019-11-06 11:00:00 11.1 8 Nordeste 20 Nordeste 0 977.2 1.2 67
2019-11-06 10:00:00 8.6 9 Nordeste 16 Nordeste 0 977.2 1.9 74
2019-11-06 09:00:00 6.7 8 Nordeste 15 Nordeste 0 976.9 2.2 81
2019-11-06 08:00:00 6.1 8 Nordeste 20 Norte 0 976 2.1 83
2019-11-06 07:00:00 6.7 4 Norte 17 Nordeste 0 975.3 1.6 82
2019-11-06 06:00:00 8 7 Norte 21 Noroeste 0 974.7 1.3 76
2019-11-06 05:00:00 8.3 9 Noroeste 27 Oeste 0 973.9 0.2 75
2019-11-06 04:00:00 8.6 13 Noroeste 30 Oeste 0 973.7 0.3 74
2019-11-06 03:00:00 8.7 18 Oeste 30 Noroeste 0 973.4 0.2 74
2019-11-06 02:00:00 8.8 10 Oeste 20 Noroeste 0 973.7 0.9 73
2019-11-06 01:00:00 9 10 Oeste 24 Oeste 0 973.4 1 72
2019-11-06 00:00:00 9.4 4 Oeste 27 Oeste 0 973.2 1.3 69
2019-11-05 23:00:00 10.4 9 Oeste 25 Oeste 0 972.8 1.4 65
2019-11-05 22:00:00 11.5 7 Noroeste 22 Noroeste 0 972.4 1.7 58
2019-11-05 21:00:00 11.8 13 Oeste 26 Oeste 0 971.9 1.8 58
2019-11-05 20:00:00 12.5 11 Oeste 39 Noroeste 0 971.4 1.5 55
2019-11-05 19:00:00 12.7 12 Oeste 37 Oeste 0 970.7 0.8 56
2019-11-05 18:00:00 13.3 13 Oeste 45 Oeste 0 970.1 0.4 51
2019-11-05 17:00:00 14.6 16 Oeste 48 Noroeste 0 969.9 0.3 47
2019-11-05 16:00:00 14.3 17 Oeste 50 Oeste 0 969.9 0 47
2019-11-05 15:00:00 15.3 24 Oeste 54 Oeste 0 969.7 -0.7 45
2019-11-05 14:00:00 15.4 22 Oeste 43 Oeste 0 969.6 -0.9 45
2019-11-05 13:00:00 14.7 19 Oeste 40 Oeste 0 969.9 -0.5 48
2019-11-05 12:00:00 14.3 16 Oeste 41 Oeste 0 970.4 0.1 52
2019-11-05 11:00:00 13.7 17 Oeste 34 Oeste 0 970.5 1 52
2019-11-05 10:00:00 12.9 15 Oeste 24 Oeste 0 970.4 1.2 57
2019-11-05 09:00:00 11.5 9 Oeste 17 Oeste 0 970.3 2 64
2019-11-05 08:00:00 10.9 5 Sudoeste 18 Sur 0 969.5 1.2 67
2019-11-05 07:00:00 11.2 6 Sudoeste 35 Oeste 0 969.2 0.8 69
2019-11-05 06:00:00 12.7 11 Oeste 23 Oeste 0 968.3 -0.4 61
2019-11-05 05:00:00 12.2 3 Este 17 Oeste 0 968.3 -0.8 75
2019-11-05 04:00:00 13.1 4 Sudeste 11 Oeste 0 968.4 -0.4 76
2019-11-05 03:00:00 13.3 4 Sudoeste 10 Sudoeste 0.2 968.7 -0.3 78
2019-11-05 02:00:00 14 3 Sudeste 10 Oeste 0 969.1 -0.1 78
2019-11-05 01:00:00 14.8 5 Sudoeste 12 Sudoeste 0 968.8 -0.8 72
2019-11-05 00:00:00 14.1 4 Sur 6 Sur 0 969 -0.1 77
2019-11-04 23:00:00 15.5 4 Sudoeste 39 Sudoeste 0 969.2 0.5 72
2019-11-04 22:00:00 17.4 14 Oeste 27 Noroeste 0 969.6 0.9 60
2019-11-04 21:00:00 16.3 6 Noroeste 14 Noroeste 0 969.1 0.4 60
2019-11-04 20:00:00 17 3 Sudoeste 11 Sur 0 968.7 -0.2 59
2019-11-04 19:00:00 18.3 4 Sudoeste 9 Sudoeste 0 968.7 -0.5 50
2019-11-04 18:00:00 19.3 3 Sudoeste 20 Oeste 0 968.7 -1 47
2019-11-04 17:00:00 20.8 17 Oeste 45 Oeste 0 968.9 -1.3 42
2019-11-04 16:00:00 21.2 22 Oeste 50 Oeste 0 969.2 -1.8 41
2019-11-04 15:00:00 21.1 21 Oeste 45 Oeste 0 969.7 -1.9 42
2019-11-04 14:00:00 20.7 15 Oeste 45 Oeste 0 970.2 -1.7 44
2019-11-04 13:00:00 19.7 22 Oeste 50 Oeste 0 971 -1.3 47
2019-11-04 12:00:00 19.2 15 Oeste 32 Noroeste 0 971.6 -0.9 46
2019-11-04 11:00:00 17.8 6 Oeste 17 Oeste 0 971.9 -0.2 55
2019-11-04 10:00:00 15.5 3 Sur 8 Sudoeste 0 972.3 0.1 57
2019-11-04 09:00:00 11.6 2 Sudoeste 7 Oeste 0 972.5 0.3 68
2019-11-04 08:00:00 11 2 Sudeste 7 Oeste 0 972.1 -0.2 68
2019-11-04 07:00:00 11.4 4 Sudoeste 10 Oeste 0 972.2 -0.3 66
2019-11-04 06:00:00 11.5 4 Sudoeste 13 Oeste 0 972.2 -0.1 61
2019-11-04 05:00:00 11.2 4 Oeste 18 Noroeste 0 972.3 -0.4 62
2019-11-04 04:00:00 11.5 8 Oeste 19 Oeste 0 972.5 -0.3 60
2019-11-04 03:00:00 11.2 5 Oeste 10 Noroeste 0 972.3 -0.2 61
2019-11-04 02:00:00 11.8 2 Este 26 Noroeste 0 972.7 0.3 59
2019-11-04 01:00:00 11.8 3 Este 18 Norte 0 972.8 1.1 57
2019-11-04 00:00:00 13.2 14 Oeste 29 Oeste 0 972.5 1.5 51
2019-11-03 23:00:00 12.1 3 Sur 26 Oeste 0 972.4 1.9 55
2019-11-03 22:00:00 12.9 9 Sudoeste 33 Oeste 0 971.7 2 49
2019-11-03 21:00:00 13.7 15 Oeste 37 Sudoeste 0 971 2.5 45
2019-11-03 20:00:00 13.8 15 Oeste 33 Noroeste 0 970.5 3.7 48
2019-11-03 19:00:00 14.3 9 Oeste 42 Noroeste 0 969.7 4.1 49
2019-11-03 18:00:00 15.2 23 Oeste 51 Noroeste 0 968.5 4.1 46
2019-11-03 17:00:00 16.5 23 Oeste 59 Oeste 0 966.8 3 43
2019-11-03 16:00:00 17.6 21 Oeste 48 Oeste 0 965.6 2.5 41
2019-11-03 15:00:00 17.7 24 Oeste 56 Oeste 0 964.4 2.2 41
2019-11-03 14:00:00 17.4 26 Oeste 54 Oeste 0 963.8 3 44
2019-11-03 13:00:00 17 21 Oeste 51 Noroeste 0 963.1 1.4 47
2019-11-03 12:00:00 15.8 26 Oeste 58 Noroeste 0 962.2 0.9 52
2019-11-03 11:00:00 16 10 Sudoeste 39 Oeste 0 960.8 -0.3 59
2019-11-03 10:00:00 15.8 10 Sudoeste 19 Sudoeste 0 961.7 0.2 69
2019-11-03 09:00:00 15.7 8 Sudoeste 17 Sur 0 961.3 -0.5 68
2019-11-03 08:00:00 15.4 5 Sudoeste 21 Oeste 0 961.1 -1.5 67
2019-11-03 07:00:00 15.4 9 Sudoeste 18 Oeste 0 961.5 -2.2 66
2019-11-03 06:00:00 15.2 9 Sudoeste 26 Oeste 0 961.8 -3.1 68
2019-11-03 05:00:00 15.1 8 Sudoeste 17 Oeste 0 962.6 -3 71
2019-11-03 04:00:00 15.3 5 Sudoeste 23 Oeste 0 963.7 -2 74
2019-11-03 03:00:00 15.6 9 Oeste 22 Sudoeste 0.2 964.9 -1.6 76
2019-11-03 02:00:00 16 8 Oeste 17 Noroeste 0 965.6 -1.9 76
2019-11-03 01:00:00 14.9 4 Oeste 11 Sudoeste 0 965.7 -2.5 77
2019-11-03 00:00:00 15.6 4 Sudoeste 10 Sudoeste 0 966.5 -2.3 75
2019-11-02 23:00:00 16.4 4 Sudoeste 10 Sur 0 967.5 -1.9 74
2019-11-02 22:00:00 16.7 5 Sudoeste 10 Sudoeste 0 968.2 -1.4 74
2019-11-02 21:00:00 17.6 6 Sudoeste 14 Sur 0 968.8 -0.9 71
2019-11-02 20:00:00 18 5 Sur 12 Sur 0 969.4 -0.3 68
2019-11-02 19:00:00 18.6 5 Sur 15 Sudoeste 0 969.6 -0.4 67
2019-11-02 18:00:00 20.1 6 Sudoeste 16 Oeste 0 969.7 -0.9 58
2019-11-02 17:00:00 21.7 10 Oeste 25 Noroeste 0 969.7 -1.8 52
2019-11-02 16:00:00 21.3 13 Oeste 40 Oeste 0 970 -2.3 52
2019-11-02 15:00:00 22.2 17 Oeste 37 Noroeste 0 970.6 -2.7 49
2019-11-02 14:00:00 22.2 13 Oeste 35 Noroeste 0 971.5 -2.6 51
2019-11-02 13:00:00 21.3 20 Oeste 33 Oeste 0 972.3 -2.4 53
2019-11-02 12:00:00 18.6 5 Nordeste 13 Nordeste 0 973.3 -1.7 70
2019-11-02 11:00:00 16.3 6 Nordeste 11 Norte 0 974.1 -0.7 78
2019-11-02 10:00:00 14.2 4 Nordeste 8 Nordeste 0 974.7 -0.2 87
2019-11-02 09:00:00 12.6 7 Nordeste 10 Norte 0 975 -0.2 93
2019-11-02 08:00:00 12.1 3 Nordeste 9 Este 0 974.8 -0.8 94
2019-11-02 07:00:00 12.4 3 Nordeste 6 Nordeste 0 974.9 -1 94
2019-11-02 06:00:00 12.7 5 Nordeste 8 Nordeste 0 975.2 -1.1 93
2019-11-02 05:00:00 13 4 Este 7 Este 0 975.6 -1 92
2019-11-02 04:00:00 14 3 Oeste 9 Nordeste 0 975.9 -1 89
2019-11-02 03:00:00 14.1 5 Nordeste 10 Nordeste 0 976.3 -1.1 89
2019-11-02 02:00:00 14.1 3 Nordeste 12 Noroeste 0 976.6 -1.3 88
2019-11-02 01:00:00 14.2 5 Nordeste 9 Este 0 976.9 -1.3 86
2019-11-02 00:00:00 14.3 4 Nordeste 7 Nordeste 0 977.4 -1.4 86
2019-11-01 23:00:00 14.6 4 Nordeste 9 Este 0 977.9 -1.4 83
2019-11-01 22:00:00 14.6 4 Nordeste 7 Nordeste 0 978.2 -1.5 84
2019-11-01 21:00:00 15.1 0 Calma 3 Noroeste 0 978.8 -0.8 84
2019-11-01 20:00:00 16 0 Calma 10 Sudoeste 0 979.3 -0.8 81
2019-11-01 19:00:00 17.2 6 Sur 12 Sudoeste 0 979.7 -0.3 76
2019-11-01 18:00:00 18.1 3 Sur 6 Sudoeste 0 979.6 -1.1 68
2019-11-01 17:00:00 19.7 5 Sur 8 Nordeste 0 980.1 -1.6 58
2019-11-01 16:00:00 20.1 4 Este 9 Nordeste 0 980 -2.4 56
2019-11-01 15:00:00 19.3 3 Noroeste 8 Norte 0 980.7 -3 57
2019-11-01 14:00:00 18.4 3 Nordeste 7 Norte 0 981.7 -2.8 60
2019-11-01 13:00:00 17.1 4 Nordeste 9 Nordeste 0 982.4 -2.3 66
2019-11-01 12:00:00 15.5 3 Nordeste 7 Nordeste 0 983.7 -0.6 70
2019-11-01 11:00:00 13.5 3 Oeste 8 Nordeste 0 984.5 0.1 81
2019-11-01 10:00:00 10.5 3 Oeste 8 Oeste 0 984.7 0.4 90
2019-11-01 09:00:00 10 3 Este 9 Este 0 984.3 -0.2 92
2019-11-01 08:00:00 9.1 5 Oeste 8 Oeste 0 984.4 -0.2 93
2019-11-01 07:00:00 9 3 Norte 7 Nordeste 0.2 984.3 -0.6 94
2019-11-01 06:00:00 8.8 4 Oeste 7 Oeste 0 984.5 -0.3 94
2019-11-01 05:00:00 9.4 3 Noroeste 6 Nordeste 0 984.6 -0.7 93
2019-11-01 04:00:00 10 5 Nordeste 9 Este 0 984.9 -0.5 94
2019-11-01 03:00:00 10.6 4 Norte 9 Nordeste 0 984.8 -0.6 93
2019-11-01 02:00:00 11.3 4 Nordeste 10 Nordeste 0 985.3 -0.3 92
2019-11-01 01:00:00 11.7 5 Nordeste 9 Nordeste 0 985.4 -0.1 92
2019-11-01 00:00:00 12.6 0 Calma 10 Noroeste 0 985.4 0.1 91
2019-10-31 23:00:00 13.2 4 Noroeste 8 Noroeste 0 985.6 0.4 90
2019-10-31 22:00:00 14.1 0 Calma 9 Nordeste 0 985.5 0.5 85
2019-10-31 21:00:00 15.3 3 Oeste 10 Sur 0 985.3 0.8 81
2019-10-31 20:00:00 16.3 2 Este 12 Sudoeste 0 985.2 1.1 77
2019-10-31 19:00:00 17.4 6 Sur 15 Sur 0 985 1 73
2019-10-31 18:00:00 18.3 7 Sur 14 Sur 0 984.5 0.4 72
2019-10-31 17:00:00 20.5 8 Sudoeste 19 Sudoeste 0 984.1 -0.3 61
2019-10-31 16:00:00 20.8 7 Sudoeste 16 Oeste 0 984 -0.8 59
2019-10-31 15:00:00 20.8 4 Oeste 8 Oeste 0 984.1 -1.4 63
2019-10-31 14:00:00 19.9 3 Noroeste 10 Nordeste 0 984.4 -1.3 65
2019-10-31 13:00:00 18.5 3 Este 8 Norte 0 984.8 -0.7 70
2019-10-31 12:00:00 17.8 3 Este 8 Este 0 985.5 0.1 72
2019-10-31 11:00:00 16.2 3 Norte 8 Noroeste 0 985.7 0.9 76
2019-10-31 10:00:00 14 3 Norte 9 Sudeste 0 985.5 1.3 84
2019-10-31 09:00:00 12.9 3 Sudoeste 6 Oeste 0 985.4 1.1 88
2019-10-31 08:00:00 11.7 2 Noroeste 7 Este 0 984.8 0.3 91
2019-10-31 07:00:00 12 3 Sudoeste 6 Norte 0 984.2 -0.4 89
2019-10-31 06:00:00 12 4 Nordeste 14 Nordeste 0 984.3 -0.5 88
2019-10-31 05:00:00 11.9 7 Nordeste 12 Nordeste 0 984.5 -0.7 89
2019-10-31 04:00:00 11.8 4 Nordeste 6 Nordeste 0 984.6 -0.9 89
2019-10-31 03:00:00 12.1 4 Nordeste 7 Nordeste 0 984.8 -0.9 88
2019-10-31 02:00:00 12.6 3 Nordeste 9 Nordeste 0 985.2 -0.3 87
2019-10-31 01:00:00 12.5 3 Norte 10 Norte 0 985.5 0 87
2019-10-31 00:00:00 13.1 5 Nordeste 10 Nordeste 0 985.7 0.3 84
2019-10-30 23:00:00 14 4 Nordeste 9 Este 0 985.5 0.1 82
2019-10-30 22:00:00 14.6 2 Nordeste 5 Nordeste 0 985.5 0.3 78
2019-10-30 21:00:00 16 3 Norte 10 Norte 0 985.4 0.5 71
2019-10-30 20:00:00 16.5 4 Norte 12 Oeste 0 985.4 0.9 69
2019-10-30 19:00:00 17.4 5 Noroeste 14 Noroeste 0 985.2 0.5 68
2019-10-30 18:00:00 18.8 7 Noroeste 20 Oeste 0 984.9 0.1 66
2019-10-30 17:00:00 21.8 5 Noroeste 18 Noroeste 0 984.5 -1 55
2019-10-30 16:00:00 22.1 5 Oeste 13 Noroeste 0 984.7 -1.5 60
2019-10-30 15:00:00 22.2 6 Oeste 14 Oeste 0 984.8 -2.1 59
2019-10-30 14:00:00 21.3 5 Oeste 14 Oeste 0 985.5 -1.8 62
2019-10-30 13:00:00 19.4 3 Norte 7 Nordeste 0 986.2 -1 60
2019-10-30 12:00:00 17.5 3 Oeste 6 Norte 0 986.9 -0.2 65
2019-10-30 11:00:00 14.2 5 Norte 8 Norte 0 987.3 0.7 73
2019-10-30 10:00:00 12 3 Nordeste 6 Norte 0 987.2 1 82
2019-10-30 09:00:00 9.8 3 Nordeste 6 Nordeste 0 987.1 1 90
2019-10-30 08:00:00 8.6 3 Norte 5 Norte 0 986.6 0.5 94
2019-10-30 07:00:00 8.5 3 Nordeste 6 Nordeste 0 986.2 0.4 93
2019-10-30 06:00:00 8.8 3 Nordeste 5 Norte 0 986.1 0.2 93
2019-10-30 05:00:00 9.2 2 Norte 5 Nordeste 0 986.1 0.4 93
2019-10-30 04:00:00 9.8 0 Calma 5 Norte 0 985.8 0.2 93
2019-10-30 03:00:00 10 3 Norte 6 Nordeste 0 985.9 0.5 93
2019-10-30 02:00:00 10.8 2 Norte 5 Nordeste 0 985.7 0.3 93
2019-10-30 01:00:00 11.1 2 Norte 5 Noroeste 0 985.6 0.6 91
2019-10-30 00:00:00 11.8 2 Noroeste 5 Oeste 0 985.4 1.2 90
2019-10-29 23:00:00 12.6 0 Calma 7 Nordeste 0 985.4 1.7 90
2019-10-29 22:00:00 13.5 2 Nordeste 8 Nordeste 0 985 1.8 87
2019-10-29 21:00:00 14.6 3 Nordeste 6 Norte 0 984.2 1.8 83
2019-10-29 20:00:00 15.6 2 Nordeste 5 Nordeste 0 983.7 1.6 81
2019-10-29 19:00:00 17.1 2 Sudoeste 7 Oeste 0 983.2 1.1 76
2019-10-29 18:00:00 19.7 0 Calma 8 Este 0 982.4 0.4 65
2019-10-29 17:00:00 22 2 Sudeste 5 Sur 0 982.1 -0.4 55
2019-10-29 16:00:00 22 4 Sudoeste 9 Oeste 0 982.1 -0.9 53
2019-10-29 15:00:00 20.1 0 Calma 9 Oeste 0 982 -1.6 64
2019-10-29 14:00:00 19 2 Oeste 6 Noroeste 0 982.5 -1.1 65
2019-10-29 13:00:00 16.8 2 Noroeste 7 Este 0 983 -0.6 71
2019-10-29 12:00:00 14.3 3 Nordeste 7 Oeste 0 983.6 0.5 77
2019-10-29 11:00:00 11.7 4 Oeste 8 Oeste 0 983.6 1.1 90
2019-10-29 10:00:00 10.1 3 Nordeste 6 Nordeste 0 983.6 1.6 94
2019-10-29 09:00:00 9.3 3 Oeste 5 Oeste 0 983.1 1.1 94
2019-10-29 08:00:00 8.7 2 Nordeste 7 Nordeste 0 982.5 0.7 94
2019-10-29 07:00:00 9.1 3 Nordeste 5 Nordeste 0 982 0.1 94
2019-10-29 06:00:00 9.4 3 Oeste 6 Norte 0 982 -0.2 93
2019-10-29 05:00:00 9.5 2 Oeste 5 Oeste 0 981.8 -0.6 94
2019-10-29 04:00:00 9.7 0 Calma 4 Nordeste 0 981.9 -0.7 94
2019-10-29 03:00:00 10.3 2 Norte 4 Nordeste 0 982.2 -0.3 94
2019-10-29 02:00:00 10.4 2 Norte 5 Norte 0 982.4 -0.1 93
2019-10-29 01:00:00 11.1 0 Calma 5 Noroeste 0 982.6 0.4 92
2019-10-29 00:00:00 11.7 2 Noroeste 6 Nordeste 0 982.5 0.2 91
2019-10-28 23:00:00 12.3 3 Norte 6 Norte 0 982.5 0.2 92
2019-10-28 22:00:00 13.1 0 Calma 3 Sur 0 982.2 -0.2 91
2019-10-28 21:00:00 14.1 2 Este 5 Oeste 0 982.3 0.2 88
2019-10-28 20:00:00 15.1 0 Calma 5 Sudoeste 0 982.3 0.2 83
2019-10-28 19:00:00 15.5 2 Oeste 5 Este 0 982.4 -0.2 81
2019-10-28 18:00:00 16.2 0 Calma 6 Oeste 0 982.1 -0.8 77
2019-10-28 17:00:00 16.8 3 Norte 6 Norte 0 982.1 -1.4 75
2019-10-28 16:00:00 17 0 Calma 7 Sudeste 0 982.6 -1.6 72
2019-10-28 15:00:00 16.7 4 Sudoeste 8 Este 0 982.9 -2 72
2019-10-28 14:00:00 16.3 5 Oeste 9 Oeste 0 983.5 -1.5 73
2019-10-28 13:00:00 14.6 2 Noroeste 6 Norte 0 984.2 -0.8 78
2019-10-28 12:00:00 13.6 3 Nordeste 8 Oeste 0 984.9 0.4 80
2019-10-28 11:00:00 12 5 Oeste 8 Noroeste 0 985 0.9 87
2019-10-28 10:00:00 11.3 4 Nordeste 6 Nordeste 0 985 1 88
2019-10-28 09:00:00 10.5 0 Calma 4 Oeste 0 984.5 0.1 90
2019-10-28 08:00:00 9.6 2 Oeste 4 Oeste 0 984.1 -0.5 92
2019-10-28 07:00:00 9.9 3 Norte 5 Norte 0 984 -1.2 92
2019-10-28 06:00:00 10.2 3 Norte 6 Norte 0 984.4 -1 92
2019-10-28 05:00:00 10.1 3 Norte 5 Noroeste 0 984.6 -1 92
2019-10-28 04:00:00 10.1 2 Oeste 5 Norte 0 985.2 -0.9 92
2019-10-28 03:00:00 10.7 2 Nordeste 4 Nordeste 0 985.4 -1 92
2019-10-28 02:00:00 11.1 3 Nordeste 5 Norte 0 985.6 -0.9 91
2019-10-28 01:00:00 11.5 2 Norte 5 Nordeste 0 986.1 -0.4 90
2019-10-28 00:00:00 12.3 2 Norte 6 Nordeste 0 986.4 0 89
2019-10-27 23:00:00 13.5 3 Norte 7 Nordeste 0 986.5 0.1 87
2019-10-27 22:00:00 14.6 2 Noroeste 5 Sur 0 986.5 0.6 83
2019-10-27 21:00:00 16.1 3 Sur 9 Sur 0 986.4 0.9 76
2019-10-27 20:00:00 16.9 4 Sudoeste 13 Sur 0 986.4 1 75
2019-10-27 19:00:00 18.4 8 Sur 21 Sur 0 985.9 0.1 69
2019-10-27 18:00:00 20.1 9 Sur 17 Sur 0 985.5 -0.6 60
2019-10-27 17:00:00 22.3 6 Sur 13 Sur 0 985.4 -1.1 46
2019-10-27 16:00:00 23.2 5 Sur 12 Sur 0 985.8 -1.4 44
2019-10-27 15:00:00 23 8 Sur 14 Sudoeste 0 986.1 -2.1 43
2019-10-27 14:00:00 22.5 5 Sur 11 Sudoeste 0 986.5 -2 48
2019-10-27 13:00:00 19.9 4 Sur 9 Sur 0 987.2 -1.5 57
2019-10-27 12:00:00 17.1 3 Este 9 Nordeste 0 988.2 -0.6 65
2019-10-27 11:00:00 14.2 3 Nordeste 7 Nordeste 0 988.5 0.1 72
2019-10-27 10:00:00 11.5 3 Noroeste 7 Nordeste 0 988.7 0.6 82
2019-10-27 09:00:00 9.5 3 Norte 5 Nordeste 0 988.8 0.8 90
2019-10-27 08:00:00 8.1 2 Nordeste 7 Norte 0 988.4 0.5 92
2019-10-27 07:00:00 8 2 Noroeste 5 Oeste 0 988.1 -0.1 93
2019-10-27 06:00:00 8.5 2 Nordeste 6 Nordeste 0 988 -0.5 93
2019-10-27 05:00:00 9 3 Nordeste 5 Norte 0 987.9 -0.7 92
2019-10-27 04:00:00 9.5 3 Nordeste 4 Nordeste 0 988.2 -0.6 92
2019-10-27 03:00:00 9.7 3 Norte 5 Oeste 0 988.5 -0.3 91
2019-10-27 02:00:00 10.2 0 Calma 6 Oeste 0 988.6 -0.2 90
2019-10-27 01:00:00 11.6 5 Nordeste 8 Norte 0 988.8 0.5 88
2019-10-27 00:00:00 12.4 2 Nordeste 5 Nordeste 0 988.8 1.3 86
2019-10-26 23:00:00 13.4 0 Calma 5 Nordeste 0 988.7 1.8 82
2019-10-26 22:00:00 14.4 0 Calma 5 Sudoeste 0 988.3 2 76
2019-10-26 21:00:00 15.8 0 Calma 17 Sur 0 987.5 1.5 71
2019-10-26 20:00:00 17.6 9 Sur 23 Sudeste 0 986.9 0.7 63
2019-10-26 19:00:00 19.5 9 Sur 20 Sudoeste 0 986.3 -0.2 55
2019-10-26 18:00:00 22.1 8 Sur 16 Sudoeste 0 986 -1.1 44
2019-10-26 17:00:00 22.9 9 Sur 16 Sudoeste 0 986.2 -1.7 40
2019-10-26 16:00:00 22.7 6 Sur 12 Sur 0 986.5 -2.2 38
2019-10-26 15:00:00 21.2 3 Este 7 Sudoeste 0 987.1 -2.1 39
2019-10-26 14:00:00 18.6 2 Sudeste 7 Nordeste 0 987.9 -1.4 51
2019-10-26 13:00:00 15.7 3 Norte 8 Nordeste 0 988.7 -0.5 59
2019-10-26 12:00:00 12.9 3 Nordeste 6 Noroeste 0 989.2 0.6 70
2019-10-26 11:00:00 10.8 2 Nordeste 6 Oeste 0 989.3 0.9 79
2019-10-26 10:00:00 7.6 3 Oeste 5 Oeste 0 989.2 1 89
2019-10-26 09:00:00 6.2 3 Norte 6 Norte 0 988.6 0.5 93
2019-10-26 08:00:00 6.5 3 Nordeste 5 Nordeste 0 988.4 0.4 93
2019-10-26 07:00:00 6.8 0 Calma 5 Nordeste 0 988.2 -0.1 93
2019-10-26 06:00:00 7 3 Nordeste 5 Nordeste 0 988.1 -0.1 92
2019-10-26 05:00:00 7.6 0 Calma 5 Nordeste 0 988 -0.3 91
2019-10-26 04:00:00 8.1 3 Nordeste 8 Norte 0 988.3 0.1 89
2019-10-26 03:00:00 8.4 2 Noroeste 6 Oeste 0 988.2 -0.1 90
2019-10-26 02:00:00 9.1 3 Oeste 7 Oeste 0 988.3 0.2 86
2019-10-26 01:00:00 10.1 3 Nordeste 9 Norte 0 988.2 0.5 82
2019-10-26 00:00:00 10.9 2 Nordeste 5 Nordeste 0 988.3 1.1 83
2019-10-25 23:00:00 12 3 Nordeste 8 Norte 0 988.1 1.2 81
2019-10-25 22:00:00 13.3 4 Nordeste 8 Nordeste 0 987.7 1.4 77
2019-10-25 21:00:00 14.7 2 Este 7 Noroeste 0 987.2 1.2 69
2019-10-25 20:00:00 16.7 2 Noroeste 9 Noroeste 0 986.9 0.7 58
2019-10-25 19:00:00 19 4 Noroeste 9 Noroeste 0 986.3 0 50
2019-10-25 18:00:00 20.6 4 Este 9 Nordeste 0 986 -0.9 49
2019-10-25 17:00:00 20.7 4 Norte 12 Sudeste 0 986.2 -1.7 48
2019-10-25 16:00:00 19.7 5 Nordeste 11 Nordeste 0 986.3 -2.6 51
2019-10-25 15:00:00 18.8 4 Nordeste 12 Nordeste 0 986.9 -2.1 54
2019-10-25 14:00:00 16.6 5 Nordeste 11 Nordeste 0 987.9 -1 61
2019-10-25 13:00:00 15.4 2 Oeste 9 Nordeste 0 988.9 0.2 65
2019-10-25 12:00:00 12.9 4 Nordeste 8 Norte 0 989 1.4 76
2019-10-25 11:00:00 10.6 4 Nordeste 9 Nordeste 0 988.9 1.9 82
2019-10-25 10:00:00 8.6 4 Nordeste 15 Nordeste 0 988.7 1.6 88
2019-10-25 09:00:00 7.2 7 Nordeste 14 Este 0 987.6 1 92
2019-10-25 08:00:00 7.4 11 Nordeste 19 Nordeste 0 987 0.7 91
2019-10-25 07:00:00 7.7 3 Nordeste 12 Nordeste 0 987.1 0.1 91
2019-10-25 06:00:00 8.6 5 Nordeste 18 Este 0 986.6 -0.4 89
2019-10-25 05:00:00 7.9 6 Nordeste 11 Nordeste 0 986.3 -1.1 92
2019-10-25 04:00:00 8.5 5 Nordeste 10 Nordeste 0 987 0.2 92
2019-10-25 03:00:00 9.1 3 Nordeste 12 Nordeste 0 987 0.8 91
2019-10-25 02:00:00 9.4 5 Nordeste 12 Nordeste 0 987.4 1.8 91
2019-10-25 01:00:00 10.1 3 Este 8 Oeste 0 986.8 1.8 90
2019-10-25 00:00:00 10.7 3 Nordeste 9 Este 0 986.2 1.9 89
2019-10-24 23:00:00 11.4 2 Norte 9 Nordeste 0 985.6 2.2 87
2019-10-24 22:00:00 12.6 2 Oeste 14 Nordeste 0 985 2.7 79
2019-10-24 21:00:00 13.8 3 Este 14 Este 0 984.3 2.3 76
2019-10-24 20:00:00 14.4 3 Noroeste 11 Oeste 0 983.4 1.9 69
2019-10-24 19:00:00 15.2 3 Sur 12 Este 0 982.3 1.3 68
2019-10-24 18:00:00 16.6 8 Noroeste 21 Noroeste 0 982 1 63
2019-10-24 17:00:00 16.2 10 Oeste 25 Oeste 0 981.5 0.6 64
2019-10-24 16:00:00 15.8 13 Oeste 35 Noroeste 0 981 -0.6 65
2019-10-24 15:00:00 15.6 12 Oeste 32 Noroeste 0 981 -0.7 68
2019-10-24 14:00:00 15.2 15 Oeste 27 Noroeste 0 980.9 -0.9 69
2019-10-24 13:00:00 13.9 5 Nordeste 12 Nordeste 0 981.6 0.9 77
2019-10-24 12:00:00 12.1 3 Nordeste 8 Nordeste 0 981.7 2 85
2019-10-24 11:00:00 9.5 5 Norte 12 Nordeste 0 981.8 3.4 94
2019-10-24 10:00:00 8.5 5 Nordeste 8 Nordeste 0 980.7 2.6 94
2019-10-24 09:00:00 8.4 3 Norte 9 Nordeste 0 979.7 2.3 95
2019-10-24 08:00:00 9.1 4 Nordeste 8 Norte 0 978.4 1.3 95
2019-10-24 07:00:00 9.1 3 Noroeste 8 Norte 0 978.1 1.3 95
2019-10-24 06:00:00 9.1 2 Este 8 Nordeste 0.2 977.4 0.3 94
2019-10-24 05:00:00 9.2 2 Norte 8 Oeste 0 977.1 0.5 94
2019-10-24 04:00:00 9.6 3 Sudoeste 6 Oeste 0 976.8 0.3 93
2019-10-24 03:00:00 10.1 0 Calma 10 Nordeste 0 977.1 0.9 92
2019-10-24 02:00:00 11 6 Este 11 Este 0 976.6 1 92
2019-10-24 01:00:00 11.5 2 Noroeste 6 Oeste 0 976.5 1.7 89
2019-10-24 00:00:00 11.8 0 Calma 7 Nordeste 0 976.2 1.5 89
2019-10-23 23:00:00 12.9 3 Nordeste 10 Oeste 0 975.6 1.2 86
2019-10-23 22:00:00 13.6 0 Calma 12 Este 0 974.8 1 83
2019-10-23 21:00:00 13.9 3 Sudeste 7 Este 0 974.7 1.5 77
2019-10-23 20:00:00 14.7 4 Este 19 Sur 0 974.4 1.5 74
2019-10-23 19:00:00 15.9 11 Sur 26 Sudeste 0 973.8 0.8 66
2019-10-23 18:00:00 17.3 11 Sur 23 Sur 0 973.2 0.4 60
2019-10-23 17:00:00 18.3 9 Sur 18 Sudeste 0 972.9 0.1 64
2019-10-23 16:00:00 17 13 Sudeste 24 Sudeste 0 973 -0.6 69
2019-10-23 15:00:00 18.8 9 Sur 19 Sur 0 972.8 -1 64
2019-10-23 14:00:00 17.5 4 Sudoeste 12 Norte 0 972.8 0.1 73
2019-10-23 13:00:00 16.4 3 Norte 11 Nordeste 0 973.6 0.3 87
2019-10-23 12:00:00 15.3 3 Este 10 Oeste 0.2 973.8 0.7 91
2019-10-23 11:00:00 14.1 3 Norte 8 Nordeste 0 972.7 0.9 94
2019-10-23 10:00:00 14.1 3 Este 6 Sur 0 973.3 -- 93
2019-10-23 09:00:00 13.5 4 Este 12 Norte 2 973.1 -- 95
2019-10-23 08:00:00 13.2 4 Noroeste -- -- -- 971.8 -- 95
2019-10-23 07:00:00 -- -- -- -- -- -- -- -- --
2019-10-23 06:00:00 -- -- -- -- -- -- -- -- --
2019-10-23 05:00:00 -- -- -- -- -- -- -- -- --
2019-10-23 04:00:00 -- -- -- -- -- -- -- -- --
2019-10-23 03:00:00 -- -- -- -- -- -- -- -- --
2019-10-23 02:00:00 -- -- -- -- -- -- -- -- --
2019-10-23 01:00:00 -- -- -- -- -- -- -- -- --
2019-10-23 00:00:00 -- -- -- -- -- -- -- -- --
2019-10-22 23:00:00 18.9 4 Noroeste 10 Oeste 0.2 973.9 -0.2 82
2019-10-22 22:00:00 19.2 4 Nordeste 25 Este 0 973.1 -1.3 78
2019-10-22 21:00:00 19.8 12 Este 26 Nordeste 0 972.9 -0.9 80
2019-10-22 20:00:00 19.8 9 Este 31 Nordeste 0 974.1 -0.6 78
2019-10-22 19:00:00 19 6 Nordeste 21 Nordeste 0 974.4 -0.7 77
2019-10-22 18:00:00 18.3 11 Nordeste 23 Nordeste 0 973.8 -1.5 78
2019-10-22 17:00:00 18.2 6 Nordeste 19 Nordeste 0.4 974.7 -1.3 83
2019-10-22 16:00:00 17 6 Norte 14 Sudeste 0.2 975.1 -1.8 87
2019-10-22 15:00:00 16.2 4 Norte 13 Nordeste 0.4 975.3 -2.2 88
2019-10-22 14:00:00 16.5 12 Nordeste 22 Norte 1.4 976 -2.4 84
2019-10-22 13:00:00 17.3 8 Nordeste 24 Norte 0 976.9 -2.4 76
2019-10-22 12:00:00 16 13 Nordeste 25 Norte 0 977.5 -3.1 80
2019-10-22 11:00:00 14.2 8 Nordeste 15 Nordeste 0 978.4 -3.1 90
2019-10-22 10:00:00 12.6 3 Noroeste 9 Nordeste 0.2 979.3 -3.5 92
2019-10-22 09:00:00 11.9 4 Norte 18 Nordeste 2.4 980.6 -2.9 93
2019-10-22 08:00:00 11.9 4 Este 12 Nordeste 2.2 981.5 -1.8 94
2019-10-22 07:00:00 12 3 Norte 9 Norte 3.4 982.8 -1.6 92
2019-10-22 06:00:00 12.1 5 Oeste 8 Oeste 1.2 983.5 -1 91
2019-10-22 05:00:00 12.2 5 Nordeste 9 Este 0 983.3 -1.4 89
2019-10-22 04:00:00 12.3 3 Norte 7 Nordeste 0 984.4 -0.9 89
2019-10-22 03:00:00 12.3 6 Nordeste 10 Nordeste 0 984.5 -1 90
2019-10-22 02:00:00 12.6 5 Nordeste 9 Nordeste 0 984.7 -0.5 89
2019-10-22 01:00:00 12.9 5 Nordeste 9 Nordeste 0 985.3 0.3 90
2019-10-22 00:00:00 13.4 2 Norte 6 Nordeste 0 985.5 0.5 87
2019-10-21 23:00:00 13.8 3 Nordeste 9 Este 0 985.2 0.7 85
2019-10-21 22:00:00 14.1 2 Oeste 7 Sur 0 985 0.8 82
2019-10-21 21:00:00 14.4 3 Sur 8 Este 0 985 0.9 80
2019-10-21 20:00:00 14.5 2 Este 6 Nordeste 0 984.5 0.2 79
2019-10-21 19:00:00 15 3 Sudoeste 6 Sur 0 984.2 0.3 76
2019-10-21 18:00:00 15.4 2 Sudeste 7 Nordeste 0 984.1 0.3 72
2019-10-21 17:00:00 15.5 2 Nordeste 7 Nordeste 0 984.3 -0.6 71
2019-10-21 16:00:00 14.7 3 Norte 13 Norte 0 983.9 -0.3 74
2019-10-21 15:00:00 14.5 6 Nordeste 12 Nordeste 0 983.8 -1.4 75
2019-10-21 14:00:00 13.2 4 Este 11 Norte 0 984.9 0.5 81
2019-10-21 13:00:00 12.7 8 Norte 14 Norte 0 984.2 0.9 81
2019-10-21 12:00:00 12.3 2 Oeste 7 Sudoeste 0 985.2 2.2 84
2019-10-21 11:00:00 11 3 Oeste 8 Norte 0 984.4 2 89
2019-10-21 10:00:00 10.4 4 Nordeste 9 Nordeste 0 983.3 1.7 94
2019-10-21 09:00:00 9.9 5 Nordeste 11 Este 0 983 1.6 96
2019-10-21 08:00:00 10.2 6 Nordeste 11 Este 0 982.4 1.1 96
2019-10-21 07:00:00 10.7 6 Nordeste 9 Nordeste 0 981.6 0.7 96
2019-10-21 06:00:00 10.9 6 Nordeste 10 Nordeste 0 981.4 0.5 96
2019-10-21 05:00:00 11.5 5 Nordeste 8 Este 0 981.3 0.8 96
2019-10-21 04:00:00 11.5 5 Nordeste 11 Nordeste 0 980.9 1 95
2019-10-21 03:00:00 11.5 3 Nordeste 6 Noroeste 0 980.9 1.4 92
2019-10-21 02:00:00 11.7 2 Nordeste 7 Noroeste 0 980.5 1.7 92
2019-10-21 01:00:00 12.5 2 Norte 9 Noroeste 0 979.9 2.2 91
2019-10-21 00:00:00 13.4 4 Noroeste 8 Noroeste 0 979.5 1.8 90
2019-10-20 23:00:00 14.2 3 Norte 7 Oeste 0 978.8 2 90
2019-10-20 22:00:00 14.8 5 Nordeste 9 Nordeste 0 977.7 1.9 90
2019-10-20 21:00:00 15.1 3 Este 7 Este 0 977.7 2.6 88
2019-10-20 20:00:00 15.4 3 Nordeste 12 Oeste 0 976.8 1 87
2019-10-20 19:00:00 15.6 3 Sudoeste 12 Este 0 975.8 1.3 85
2019-10-20 18:00:00 16 8 Este 19 Nordeste 0 975.1 0.4 81
2019-10-20 17:00:00 16.4 6 Nordeste 15 Nordeste 0 975.8 1.8 80
2019-10-20 16:00:00 15.7 5 Este 14 Oeste 1 974.5 1.3 87
2019-10-20 15:00:00 16.1 5 Norte 38 Oeste 3.4 974.7 1.4 81
2019-10-20 14:00:00 19.3 13 Noroeste 32 Noroeste 0 974 1.1 59
2019-10-20 13:00:00 20.2 5 Noroeste 19 Oeste 0 973.2 0.4 65
2019-10-20 12:00:00 19.2 15 Oeste 35 Oeste 0 973.3 1.3 62
2019-10-20 11:00:00 18.9 2 Oeste 6 Noroeste 0 972.9 1.3 89
2019-10-20 10:00:00 17.5 2 Sur 10 Oeste 0 972.8 1.3 91
2019-10-20 09:00:00 17.5 4 Sur 10 Sudeste 0 972 0.2 94
2019-10-20 08:00:00 16.3 5 Noroeste 10 Oeste 1.8 971.6 -0.4 92
2019-10-20 07:00:00 16.1 0 Calma 8 Oeste 0 971.5 -1.2 91
2019-10-20 06:00:00 16.1 3 Este 9 Nordeste 0 971.8 -1.6 92
2019-10-20 05:00:00 16.5 4 Este 11 Nordeste 0.2 972 -1.8 90
2019-10-20 04:00:00 16.6 4 Nordeste 9 Sudoeste 0 972.7 -1 89
2019-10-20 03:00:00 18 4 Sur 14 Sudoeste 0 973.4 -0.6 85
2019-10-20 02:00:00 18.6 6 Sur 25 Sur 0 973.8 -0.2 82
2019-10-20 01:00:00 19.1 9 Sur 25 Sur 0 973.7 -0.3 78
2019-10-20 00:00:00 19 8 Sur 21 Sur 0 974 -0.1 79
2019-10-19 23:00:00 18.8 9 Sur 20 Sur 0 974 0.2 79
2019-10-19 22:00:00 18.9 6 Sudeste 11 Sur 0 974 0.7 79
2019-10-19 21:00:00 19.2 7 Sur 19 Sur 0 974.1 1.1 74
2019-10-19 20:00:00 19.9 7 Sur 23 Sur 0 973.8 0.9 68
2019-10-19 19:00:00 21.4 14 Sur 31 Sur 0 973.3 0.2 62
2019-10-19 18:00:00 23.1 13 Sur 27 Sur 0 973 -0.5 54
2019-10-19 17:00:00 24.7 13 Sur 28 Sur 0 972.9 -1.8 46
2019-10-19 16:00:00 24.6 13 Sur 28 Sur 0 973.1 -2.8 43
2019-10-19 15:00:00 25.3 13 Sur 29 Sudoeste 0 973.5 -3.1 45
2019-10-19 14:00:00 23.9 8 Sur 18 Sudoeste 0 974.7 -2.4 53
2019-10-19 13:00:00 18.7 3 Oeste 7 Oeste 0 975.9 -1.2 63
2019-10-19 12:00:00 16.5 3 Noroeste 7 Sudoeste 0 976.6 -0.4 70
2019-10-19 11:00:00 13.6 3 Norte 7 Norte 0 977.1 0.2 81
2019-10-19 10:00:00 12.1 4 Nordeste 10 Norte 0 977.1 0.1 84
2019-10-19 09:00:00 10.8 5 Nordeste 7 Nordeste 0 977 -0.2 91
2019-10-19 08:00:00 10.2 0 Calma 4 Nordeste 0 976.9 -0.5 92
2019-10-19 07:00:00 10.5 3 Norte 6 Nordeste 0 977 -1 91
2019-10-19 06:00:00 11.1 2 Noroeste 6 Nordeste 0 977.2 -1.4 90
2019-10-19 05:00:00 11.7 4 Nordeste 6 Norte 0 977.4 -1.6 89
2019-10-19 04:00:00 12.2 2 Nordeste 6 Nordeste 0 978 -1.3 88
2019-10-19 03:00:00 12.7 2 Norte 11 Nordeste 0 978.6 -0.8 86
2019-10-19 02:00:00 13.4 6 Nordeste 9 Nordeste 0 979 -0.6 83
2019-10-19 01:00:00 14.7 3 Nordeste 6 Este 0 979.3 -0.2 80
2019-10-19 00:00:00 15.7 3 Nordeste 7 Norte 0 979.4 -0.2 76
2019-10-18 23:00:00 16.4 3 Nordeste 8 Oeste 0 979.6 0.1 73
2019-10-18 22:00:00 18.2 3 Sudoeste 9 Sur 0 979.5 0.4 68
2019-10-18 21:00:00 19.6 4 Sur 11 Sur 0 979.6 0.3 63
2019-10-18 20:00:00 20.7 3 Sur 9 Oeste 0 979.5 0 57
2019-10-18 19:00:00 22.5 5 Oeste 18 Noroeste 0 979.1 -0.3 51
2019-10-18 18:00:00 23.6 13 Oeste 24 Oeste 0 979.3 -0.7 47
2019-10-18 17:00:00 23.7 12 Oeste 27 Noroeste 0 979.5 -1.5 47
2019-10-18 16:00:00 24.6 13 Noroeste 23 Oeste 0 979.4 -2.6 42
2019-10-18 15:00:00 24.2 5 Oeste 13 Noroeste 0 980 -2.5 44
2019-10-18 14:00:00 21.6 4 Nordeste 9 Nordeste 0 981 -1.7 48
2019-10-18 13:00:00 18.8 4 Este 8 Nordeste 0 982 -0.8 52
2019-10-18 12:00:00 14.4 2 Oeste 8 Nordeste 0 982.5 0.2 65
2019-10-18 11:00:00 11.9 3 Norte 12 Este 0 982.7 0.5 73
2019-10-18 10:00:00 10.3 6 Norte 13 Nordeste 0 982.8 0.6 78
2019-10-18 09:00:00 9.4 9 Nordeste 15 Nordeste 0 982.3 0 81
2019-10-18 08:00:00 9 7 Nordeste 12 Nordeste 0 982.2 0.1 81
2019-10-18 07:00:00 8.9 6 Norte 15 Nordeste 0 982.2 -0.3 81
2019-10-18 06:00:00 9 8 Nordeste 14 Nordeste 0 982.3 -0.3 82
2019-10-18 05:00:00 9.6 4 Nordeste 9 Nordeste 0 982.1 -0.6 80
2019-10-18 04:00:00 10.1 3 Nordeste 8 Nordeste 0 982.5 -0.2 78
2019-10-18 03:00:00 10.9 3 Nordeste 12 Nordeste 0 982.6 -0.2 74
2019-10-18 02:00:00 11.7 5 Nordeste 11 Nordeste 0 982.7 0 72
2019-10-18 01:00:00 12.8 4 Nordeste 12 Nordeste 0 982.7 0.2 67
2019-10-18 00:00:00 14.5 4 Nordeste 6 Este 0 982.8 0.8 61
2019-10-17 23:00:00 15.9 2 Oeste 17 Noroeste 0 982.7 1.3 57
2019-10-17 22:00:00 17.9 8 Noroeste 18 Noroeste 0 982.5 1.6 48
2019-10-17 21:00:00 18.6 6 Oeste 11 Noroeste 0 982 1 44
2019-10-17 20:00:00 19.6 8 Oeste 13 Oeste 0 981.4 0.6 35
2019-10-17 19:00:00 20.8 9 Oeste 22 Oeste 0 980.9 0.1 31
2019-10-17 18:00:00 22.1 9 Oeste 27 Noroeste 0 981 -0.3 31
2019-10-17 17:00:00 24.3 12 Oeste 28 Noroeste 0 980.8 -1.2 24
2019-10-17 16:00:00 25.6 13 Oeste 25 Oeste 0 980.8 -2.2 21
2019-10-17 15:00:00 24.2 4 Sur 12 Sur 0 981.3 -2.4 30
2019-10-17 14:00:00 22.8 3 Noroeste 9 Nordeste 0 982 -1.7 34
2019-10-17 13:00:00 18.3 5 Nordeste 9 Nordeste 0 983 -0.7 50
2019-10-17 12:00:00 15.2 4 Nordeste 8 Nordeste 0 983.7 0.3 59
2019-10-17 11:00:00 12.3 3 Nordeste 7 Nordeste 0 983.7 0.8 69
2019-10-17 10:00:00 9.7 3 Norte 6 Norte 0 983.7 1 76
2019-10-17 09:00:00 7 2 Este 5 Norte 0 983.4 0.8 87
2019-10-17 08:00:00 7.2 2 Nordeste 5 Nordeste 0 982.9 0 87
2019-10-17 07:00:00 7.5 3 Nordeste 7 Norte 0 982.7 -0.4 85
2019-10-17 06:00:00 8 3 Nordeste 9 Nordeste 0 982.6 -0.6 84
2019-10-17 05:00:00 8.7 6 Nordeste 10 Nordeste 0 982.9 -0.4 82
2019-10-17 04:00:00 9.4 6 Nordeste 10 Nordeste 0 983.1 -0.2 79
2019-10-17 03:00:00 9.6 6 Nordeste 9 Nordeste 0 983.2 -0.1 78
2019-10-17 02:00:00 10.3 5 Nordeste 9 Nordeste 0 983.3 0.5 75
2019-10-17 01:00:00 11.4 5 Nordeste 8 Nordeste 0 983.3 0.9 70
2019-10-17 00:00:00 12.7 3 Este 7 Nordeste 0 983.3 1.4 64
2019-10-16 23:00:00 14.1 2 Sur 4 Sudeste 0 982.8 1.1 55
2019-10-16 22:00:00 15.1 0 Calma 5 Este 0 982.4 0.9 52
2019-10-16 21:00:00 16.9 3 Sur 12 Oeste 0 981.9 0.5 44
2019-10-16 20:00:00 18.1 4 Oeste 19 Oeste 0 981.7 -0.1 40
2019-10-16 19:00:00 19.9 8 Oeste 26 Sudoeste 0 981.5 -0.8 35
2019-10-16 18:00:00 21.8 12 Oeste 25 Oeste 0 981.4 -1.4 30
2019-10-16 17:00:00 22.3 13 Oeste 31 Noroeste 0 981.8 -1.9 27
2019-10-16 16:00:00 22.1 13 Oeste 30 Oeste 0 982.3 -2.2 28
2019-10-16 15:00:00 21.7 13 Oeste 29 Oeste 0 982.8 -2.4 29
2019-10-16 14:00:00 21.1 10 Noroeste 29 Sudoeste 0 983.7 -1.8 31
2019-10-16 13:00:00 19.8 6 Oeste 13 Oeste 0 984.5 -1.1 36
2019-10-16 12:00:00 17 3 Nordeste 7 Sudeste 0 985.2 -0.2 46
2019-10-16 11:00:00 13.8 3 Este 9 Este 0 985.5 0.4 59
2019-10-16 10:00:00 9.6 6 Nordeste 12 Norte 0 985.6 0.8 77
2019-10-16 09:00:00 7.3 6 Nordeste 10 Nordeste 0 985.4 0.4 86
2019-10-16 08:00:00 6.8 5 Nordeste 8 Nordeste 0 985.1 0 88
2019-10-16 07:00:00 7 4 Nordeste 8 Norte 0 984.8 -0.4 88
2019-10-16 06:00:00 6.9 2 Norte 6 Nordeste 0 985 -0.8 88
2019-10-16 05:00:00 7.3 3 Norte 7 Nordeste 0 985.1 -1 87
2019-10-16 04:00:00 7.9 2 Nordeste 9 Nordeste 0 985.2 -0.9 85
2019-10-16 03:00:00 8.7 4 Nordeste 9 Nordeste 0 985.8 -0.1 84
2019-10-16 02:00:00 9.2 3 Nordeste 9 Nordeste 0 986.1 0.6 82
2019-10-16 01:00:00 10.5 4 Nordeste 9 Nordeste 0 986.1 1.4 77
2019-10-16 00:00:00 11.7 2 Nordeste 6 Norte 0 985.9 1.5 69
2019-10-15 23:00:00 12.7 2 Este 6 Nordeste 0 985.5 1.6 63
2019-10-15 22:00:00 14.1 3 Nordeste 14 Oeste 0 984.7 1.8 57
2019-10-15 21:00:00 15.3 2 Nordeste 16 Oeste 0 984.4 1.9 53
2019-10-15 20:00:00 16.2 6 Oeste 14 Noroeste 0 983.9 1.9 48
2019-10-15 19:00:00 17.4 8 Oeste 24 Noroeste 0 982.9 1.3 47
2019-10-15 18:00:00 18.7 15 Oeste 28 Noroeste 0 982.5 0.3 42
2019-10-15 17:00:00 19.6 14 Oeste 27 Noroeste 0 982 -0.1 39
2019-10-15 16:00:00 18.7 18 Noroeste 41 Oeste 0 981.6 -0.6 43
2019-10-15 15:00:00 18 18 Oeste 38 Oeste 0 982.2 0.4 44
2019-10-15 14:00:00 17.1 20 Oeste 37 Noroeste 0 982.1 0.7 48
2019-10-15 13:00:00 16.1 20 Oeste 36 Oeste 0 982.2 1.8 50
2019-10-15 12:00:00 15.2 10 Noroeste 25 Noroeste 0 981.8 2.1 55
2019-10-15 11:00:00 14 10 Noroeste 36 Oeste 0 981.4 2.5 57
2019-10-15 10:00:00 13.9 6 Noroeste 22 Noroeste 0 980.4 1.9 57
2019-10-15 09:00:00 12.5 12 Oeste 26 Oeste 0 979.7 1.2 64
2019-10-15 08:00:00 11.9 15 Noroeste 39 Oeste 0 978.9 0.7 70
2019-10-15 07:00:00 12.1 12 Noroeste 24 Oeste 0 978.5 0.7 71
2019-10-15 06:00:00 13.1 13 Noroeste 34 Noroeste 0 978.5 1 66
2019-10-15 05:00:00 13.8 12 Oeste 31 Noroeste 0 978.2 0.6 65
2019-10-15 04:00:00 14 8 Oeste 23 Sudoeste 0 977.8 0 68
2019-10-15 03:00:00 14.8 6 Oeste 22 Oeste 0.2 977.5 -0.6 74
2019-10-15 02:00:00 15.8 5 Noroeste 14 Norte 1.2 977.6 0 84
2019-10-15 01:00:00 16.1 8 Nordeste 12 Nordeste 0 977.8 0.4 86
2019-10-15 00:00:00 16.9 3 Norte 22 Sur 0.4 978.1 0.6 81